createdAt,value
2023-04-15T00:00:53.353Z,520.00
2023-04-15T00:01:53.433Z,516.00
2023-04-15T00:02:53.448Z,518.00
2023-04-15T00:03:53.455Z,522.00
2023-04-15T00:04:53.370Z,521.00
2023-04-15T00:05:53.300Z,519.00
2023-04-15T00:06:53.302Z,514.00
2023-04-15T00:07:53.298Z,517.00
2023-04-15T00:08:53.290Z,515.00
2023-04-15T00:09:53.274Z,517.00
2023-04-15T00:10:53.297Z,517.00
2023-04-15T00:11:53.268Z,518.00
2023-04-15T00:12:53.257Z,515.00
2023-04-15T00:13:53.247Z,514.00
2023-04-15T00:14:53.233Z,515.00
2023-04-15T00:15:53.219Z,512.00
2023-04-15T00:16:53.264Z,511.00
2023-04-15T00:17:53.234Z,511.00
2023-04-15T00:18:53.206Z,510.00
2023-04-15T00:19:53.180Z,509.00
2023-04-15T00:20:53.173Z,508.00
2023-04-15T00:21:53.180Z,511.00
2023-04-15T00:22:53.187Z,513.00
2023-04-15T00:23:53.173Z,515.00
2023-04-15T00:24:53.162Z,516.00
2023-04-15T00:25:53.160Z,513.00
2023-04-15T00:26:53.173Z,512.00
2023-04-15T00:27:53.142Z,512.00
2023-04-15T00:28:53.137Z,516.00
2023-04-15T00:29:53.143Z,517.00
2023-04-15T00:30:53.271Z,519.00
2023-04-15T00:31:53.115Z,520.00
2023-04-15T00:32:53.147Z,521.00
2023-04-15T00:33:53.105Z,525.00
2023-04-15T00:34:53.116Z,519.00
2023-04-15T00:35:53.079Z,518.00
2023-04-15T00:36:53.085Z,517.00
2023-04-15T00:37:53.071Z,517.00
2023-04-15T00:38:53.066Z,518.00
2023-04-15T00:39:53.063Z,518.00
2023-04-15T00:40:53.059Z,518.00
2023-04-15T00:41:53.057Z,517.00
2023-04-15T00:42:53.081Z,515.00
2023-04-15T00:43:53.045Z,513.00
2023-04-15T00:44:53.038Z,510.00
2023-04-15T00:45:53.087Z,513.00
2023-04-15T00:46:53.052Z,511.00
2023-04-15T00:47:53.105Z,510.00
2023-04-15T00:48:53.047Z,510.00
2023-04-15T00:49:53.034Z,510.00
2023-04-15T00:50:53.010Z,508.00
2023-04-15T00:51:53.005Z,507.00
2023-04-15T00:52:52.999Z,508.00
2023-04-15T00:53:52.999Z,508.00
2023-04-15T00:54:52.983Z,506.00
2023-04-15T00:55:52.989Z,506.00
2023-04-15T00:56:52.997Z,509.00
2023-04-15T00:57:53.031Z,508.00
2023-04-15T00:58:53.073Z,505.00
2023-04-15T00:59:53.080Z,505.00
2023-04-15T01:00:53.106Z,503.00
2023-04-15T01:01:53.200Z,503.00
2023-04-15T01:02:53.271Z,504.00
2023-04-15T01:03:53.280Z,508.00
2023-04-15T01:04:53.191Z,509.00
2023-04-15T01:05:53.216Z,510.00
2023-04-15T01:06:53.240Z,509.00
2023-04-15T01:07:53.270Z,507.00
2023-04-15T01:08:53.287Z,506.00
2023-04-15T01:09:53.297Z,509.00
2023-04-15T01:10:53.316Z,508.00
2023-04-15T01:11:53.334Z,508.00
2023-04-15T01:12:53.357Z,506.00
2023-04-15T01:13:53.382Z,504.00
2023-04-15T01:14:53.433Z,504.00
2023-04-15T01:15:53.467Z,503.00
2023-04-15T01:16:53.445Z,504.00
2023-04-15T01:17:53.495Z,505.00
2023-04-15T01:18:53.491Z,506.00
2023-04-15T01:19:53.503Z,504.00
2023-04-15T01:20:53.533Z,507.00
2023-04-15T01:21:53.546Z,508.00
2023-04-15T01:22:53.566Z,510.00
2023-04-15T01:23:53.585Z,511.00
2023-04-15T01:24:53.599Z,508.00
2023-04-15T01:25:53.612Z,507.00
2023-04-15T01:26:53.637Z,505.00
2023-04-15T01:27:53.661Z,506.00
2023-04-15T01:28:53.678Z,505.00
2023-04-15T01:29:53.705Z,507.00
2023-04-15T01:30:53.744Z,507.00
2023-04-15T01:31:53.823Z,509.00
2023-04-15T01:32:53.773Z,513.00
2023-04-15T01:33:53.801Z,515.00
2023-04-15T01:34:53.806Z,514.00
2023-04-15T01:35:53.824Z,512.00
2023-04-15T01:36:53.847Z,511.00
2023-04-15T01:37:53.875Z,509.00
2023-04-15T01:38:53.888Z,506.00
2023-04-15T01:39:53.913Z,505.00
2023-04-15T01:40:53.926Z,506.00
2023-04-15T01:41:53.942Z,503.00
2023-04-15T01:42:53.962Z,501.00
2023-04-15T01:43:53.986Z,503.00
2023-04-15T01:44:54.008Z,501.00
2023-04-15T01:45:54.036Z,500.00
2023-04-15T01:46:54.109Z,501.00
2023-04-15T01:47:54.134Z,500.00
2023-04-15T01:48:54.150Z,502.00
2023-04-15T01:49:54.125Z,504.00
2023-04-15T01:50:54.153Z,505.00
2023-04-15T01:51:54.205Z,503.00
2023-04-15T01:52:54.203Z,502.00
2023-04-15T01:53:54.221Z,500.00
2023-04-15T01:54:54.248Z,500.00
2023-04-15T01:55:54.268Z,500.00
2023-04-15T01:56:54.296Z,504.00
2023-04-15T01:57:54.329Z,503.00
2023-04-15T01:58:54.362Z,504.00
2023-04-15T01:59:54.382Z,504.00
2023-04-15T02:00:54.428Z,502.00
2023-04-15T02:01:54.458Z,502.00
2023-04-15T02:02:54.505Z,503.00
2023-04-15T02:03:54.522Z,506.00
2023-04-15T02:04:54.509Z,506.00
2023-04-15T02:05:54.529Z,507.00
2023-04-15T02:06:54.561Z,507.00
2023-04-15T02:07:54.576Z,508.00
2023-04-15T02:08:54.598Z,508.00
2023-04-15T02:09:54.612Z,502.00
2023-04-15T02:10:54.629Z,500.00
2023-04-15T02:11:54.662Z,496.00
2023-04-15T02:12:54.685Z,496.00
2023-04-15T02:13:54.753Z,493.00
2023-04-15T02:14:54.730Z,493.00
2023-04-15T02:15:54.755Z,496.00
2023-04-15T02:16:54.848Z,497.00
2023-04-15T02:17:54.833Z,496.00
2023-04-15T02:18:54.850Z,498.00
2023-04-15T02:19:54.846Z,498.00
2023-04-15T02:20:54.872Z,499.00
2023-04-15T02:21:54.906Z,500.00
2023-04-15T02:22:54.935Z,500.00
2023-04-15T02:23:54.958Z,500.00
2023-04-15T02:24:54.982Z,499.00
2023-04-15T02:25:55.008Z,499.00
2023-04-15T02:26:55.029Z,498.00
2023-04-15T02:27:55.048Z,497.00
2023-04-15T02:28:55.069Z,494.00
2023-04-15T02:29:55.105Z,495.00
2023-04-15T02:30:55.112Z,496.00
2023-04-15T02:31:55.194Z,495.00
2023-04-15T02:32:55.217Z,498.00
2023-04-15T02:33:55.165Z,497.00
2023-04-15T02:34:55.215Z,497.00
2023-04-15T02:35:55.211Z,496.00
2023-04-15T02:36:55.237Z,495.00
2023-04-15T02:37:55.257Z,496.00
2023-04-15T02:38:55.275Z,494.00
2023-04-15T02:39:55.304Z,494.00
2023-04-15T02:40:55.323Z,493.00
2023-04-15T02:41:55.369Z,495.00
2023-04-15T02:42:55.381Z,494.00
2023-04-15T02:43:55.405Z,496.00
2023-04-15T02:44:55.433Z,498.00
2023-04-15T02:45:55.492Z,497.00
2023-04-15T02:46:55.480Z,499.00
2023-04-15T02:47:55.530Z,498.00
2023-04-15T02:48:55.525Z,499.00
2023-04-15T02:49:55.560Z,498.00
2023-04-15T02:50:55.599Z,496.00
2023-04-15T02:51:55.604Z,495.00
2023-04-15T02:52:55.727Z,496.00
2023-04-15T02:53:55.670Z,498.00
2023-04-15T02:54:55.701Z,497.00
2023-04-15T02:55:55.732Z,497.00
2023-04-15T02:56:55.755Z,498.00
2023-04-15T02:57:56.057Z,500.00
2023-04-15T02:58:55.816Z,502.00
2023-04-15T02:59:55.852Z,504.00
2023-04-15T03:00:55.898Z,503.00
2023-04-15T03:01:55.994Z,502.00
2023-04-15T03:02:56.033Z,500.00
2023-04-15T03:03:56.076Z,499.00
2023-04-15T03:04:55.971Z,497.00
2023-04-15T03:05:55.990Z,498.00
2023-04-15T03:06:56.075Z,497.00
2023-04-15T03:07:56.039Z,497.00
2023-04-15T03:08:56.068Z,496.00
2023-04-15T03:09:56.087Z,497.00
2023-04-15T03:10:56.103Z,499.00
2023-04-15T03:11:56.119Z,500.00
2023-04-15T03:12:56.132Z,499.00
2023-04-15T03:13:56.142Z,499.00
2023-04-15T03:14:56.160Z,494.00
2023-04-15T03:15:56.258Z,497.00
2023-04-15T03:16:56.169Z,497.00
2023-04-15T03:17:56.288Z,498.00
2023-04-15T03:18:56.202Z,497.00
2023-04-15T03:19:56.277Z,495.00
2023-04-15T03:20:56.226Z,498.00
2023-04-15T03:21:56.248Z,499.00
2023-04-15T03:22:56.271Z,497.00
2023-04-15T03:23:56.272Z,497.00
2023-04-15T03:24:56.276Z,498.00
2023-04-15T03:25:56.298Z,498.00
2023-04-15T03:26:56.298Z,497.00
2023-04-15T03:27:56.313Z,495.00
2023-04-15T03:28:56.325Z,495.00
2023-04-15T03:29:56.340Z,495.00
2023-04-15T03:30:56.373Z,495.00
2023-04-15T03:31:56.350Z,496.00
2023-04-15T03:32:56.464Z,493.00
2023-04-15T03:33:56.384Z,491.00
2023-04-15T03:34:56.398Z,495.00
2023-04-15T03:35:56.406Z,495.00
2023-04-15T03:36:56.419Z,494.00
2023-04-15T03:37:56.422Z,492.00
2023-04-15T03:38:56.464Z,492.00
2023-04-15T03:39:56.486Z,491.00
2023-04-15T03:40:56.462Z,491.00
2023-04-15T03:41:56.485Z,488.00
2023-04-15T03:42:56.513Z,488.00
2023-04-15T03:43:56.514Z,488.00
2023-04-15T03:44:56.537Z,488.00
2023-04-15T03:45:56.556Z,487.00
2023-04-15T03:46:56.592Z,486.00
2023-04-15T03:47:58.614Z,487.00
2023-04-15T03:48:56.552Z,487.00
2023-04-15T03:49:56.551Z,488.00
2023-04-15T03:50:56.554Z,487.00
2023-04-15T03:51:56.557Z,488.00
2023-04-15T03:52:56.555Z,489.00
2023-04-15T03:53:56.562Z,489.00
2023-04-15T03:54:56.592Z,489.00
2023-04-15T03:55:56.572Z,489.00
2023-04-15T03:56:56.571Z,492.00
2023-04-15T03:57:56.572Z,490.00
2023-04-15T03:58:56.617Z,487.00
2023-04-15T03:59:56.549Z,490.00
2023-04-15T04:00:56.541Z,488.00
2023-04-15T04:01:56.622Z,486.00
2023-04-15T04:02:56.722Z,486.00
2023-04-15T04:03:56.738Z,488.00
2023-04-15T04:04:56.530Z,489.00
2023-04-15T04:05:56.520Z,489.00
2023-04-15T04:06:56.502Z,489.00
2023-04-15T04:07:56.496Z,489.00
2023-04-15T04:08:56.499Z,486.00
2023-04-15T04:09:56.493Z,485.00
2023-04-15T04:10:56.520Z,485.00
2023-04-15T04:11:56.493Z,485.00
2023-04-15T04:12:56.490Z,484.00
2023-04-15T04:13:56.499Z,484.00
2023-04-15T04:14:56.487Z,483.00
2023-04-15T04:15:56.510Z,485.00
2023-04-15T04:16:56.494Z,486.00
2023-04-15T04:17:56.609Z,487.00
2023-04-15T04:18:56.483Z,488.00
2023-04-15T04:19:56.488Z,490.00
2023-04-15T04:20:56.486Z,489.00
2023-04-15T04:21:56.491Z,486.00
2023-04-15T04:22:56.489Z,486.00
2023-04-15T04:23:56.488Z,488.00
2023-04-15T04:24:56.493Z,488.00
2023-04-15T04:25:56.499Z,488.00
2023-04-15T04:26:56.516Z,488.00
2023-04-15T04:27:56.490Z,491.00
2023-04-15T04:28:56.477Z,488.00
2023-04-15T04:29:56.461Z,488.00
2023-04-15T04:30:56.481Z,488.00
2023-04-15T04:31:56.491Z,487.00
2023-04-15T04:32:56.493Z,489.00
2023-04-15T04:33:56.443Z,491.00
2023-04-15T04:34:56.448Z,491.00
2023-04-15T04:35:56.433Z,490.00
2023-04-15T04:36:56.447Z,490.00
2023-04-15T04:37:56.431Z,491.00
2023-04-15T04:38:56.454Z,490.00
2023-04-15T04:39:56.426Z,487.00
2023-04-15T04:40:56.424Z,490.00
2023-04-15T04:41:56.417Z,492.00
2023-04-15T04:42:56.433Z,494.00
2023-04-15T04:43:56.397Z,492.00
2023-04-15T04:44:56.392Z,495.00
2023-04-15T04:45:56.403Z,495.00
2023-04-15T04:46:56.380Z,496.00
2023-04-15T04:47:56.436Z,495.00
2023-04-15T04:48:56.366Z,496.00
2023-04-15T04:49:56.385Z,495.00
2023-04-15T04:50:56.368Z,493.00
2023-04-15T04:51:56.364Z,490.00
2023-04-15T04:52:56.355Z,489.00
2023-04-15T04:53:56.348Z,489.00
2023-04-15T04:54:56.349Z,491.00
2023-04-15T04:55:56.366Z,492.00
2023-04-15T04:56:56.344Z,491.00
2023-04-15T04:57:56.334Z,488.00
2023-04-15T04:58:56.363Z,484.00
2023-04-15T04:59:56.333Z,482.00
2023-04-15T05:00:56.325Z,483.00
2023-04-15T05:01:56.360Z,483.00
2023-04-15T05:02:56.395Z,485.00
2023-04-15T05:03:56.554Z,489.00
2023-04-15T05:04:56.313Z,488.00
2023-04-15T05:05:56.349Z,487.00
2023-04-15T05:06:56.405Z,487.00
2023-04-15T05:07:56.371Z,487.00
2023-04-15T05:08:56.373Z,487.00
2023-04-15T05:09:56.408Z,487.00
2023-04-15T05:10:56.418Z,489.00
2023-04-15T05:11:56.432Z,489.00
2023-04-15T05:12:56.435Z,489.00
2023-04-15T05:13:56.452Z,489.00
2023-04-15T05:14:56.487Z,489.00
2023-04-15T05:15:56.513Z,486.00
2023-04-15T05:16:56.498Z,481.00
2023-04-15T05:17:56.591Z,483.00
2023-04-15T05:18:56.528Z,485.00
2023-04-15T05:19:56.550Z,487.00
2023-04-15T05:20:56.566Z,490.00
2023-04-15T05:21:56.567Z,484.00
2023-04-15T05:22:56.591Z,481.00
2023-04-15T05:23:56.596Z,484.00
2023-04-15T05:24:56.652Z,481.00
2023-04-15T05:25:56.621Z,482.00
2023-04-15T05:26:56.648Z,484.00
2023-04-15T05:27:56.660Z,484.00
2023-04-15T05:28:56.697Z,481.00
2023-04-15T05:29:56.707Z,479.00
2023-04-15T05:30:56.781Z,480.00
2023-04-15T05:31:56.735Z,482.00
2023-04-15T05:32:56.784Z,483.00
2023-04-15T05:33:56.772Z,483.00
2023-04-15T05:34:56.785Z,483.00
2023-04-15T05:35:56.815Z,482.00
2023-04-15T05:36:56.821Z,482.00
2023-04-15T05:37:56.838Z,480.00
2023-04-15T05:38:56.857Z,479.00
2023-04-15T05:39:56.877Z,479.00
2023-04-15T05:40:56.901Z,481.00
2023-04-15T05:41:56.914Z,483.00
2023-04-15T05:42:56.924Z,484.00
2023-04-15T05:43:56.950Z,483.00
2023-04-15T05:44:56.964Z,482.00
2023-04-15T05:45:57.021Z,482.00
2023-04-15T05:46:57.467Z,480.00
2023-04-15T05:47:57.052Z,480.00
2023-04-15T05:48:57.013Z,478.00
2023-04-15T05:49:57.042Z,479.00
2023-04-15T05:50:57.069Z,478.00
2023-04-15T05:51:57.444Z,478.00
2023-04-15T05:52:57.082Z,476.00
2023-04-15T05:53:57.092Z,476.00
2023-04-15T05:54:57.124Z,470.00
2023-04-15T05:55:57.168Z,477.00
2023-04-15T05:56:57.208Z,480.00
2023-04-15T05:57:57.267Z,461.00
2023-04-15T05:58:57.346Z,466.00
2023-04-15T05:59:57.446Z,476.00
2023-04-15T06:00:57.479Z,478.00
2023-04-15T06:01:57.584Z,481.00
2023-04-15T06:02:57.817Z,526.00
2023-04-15T06:03:57.897Z,535.00
2023-04-15T06:04:57.857Z,554.00
2023-04-15T06:05:57.848Z,566.00
2023-04-15T06:06:57.907Z,571.00
2023-04-15T06:07:57.974Z,583.00
2023-04-15T06:08:58.047Z,583.00
2023-04-15T06:09:58.089Z,587.00
2023-04-15T06:10:58.105Z,594.00
2023-04-15T06:11:58.139Z,603.00
2023-04-15T06:12:58.158Z,625.00
2023-04-15T06:13:58.238Z,643.00
2023-04-15T06:15:00.008Z,654.00
2023-04-15T06:15:58.344Z,666.00
2023-04-15T06:16:58.318Z,676.00
2023-04-15T06:17:58.353Z,690.00
2023-04-15T06:18:58.351Z,703.00
2023-04-15T06:19:58.331Z,715.00
2023-04-15T06:20:58.323Z,724.00
2023-04-15T06:21:58.314Z,740.00
2023-04-15T06:22:58.305Z,778.00
2023-04-15T06:23:58.311Z,784.00
2023-04-15T06:24:58.314Z,790.00
2023-04-15T06:25:58.317Z,877.00
2023-04-15T06:26:58.329Z,860.00
2023-04-15T06:27:58.318Z,859.00
2023-04-15T06:28:58.344Z,862.00
2023-04-15T06:29:58.292Z,872.00
2023-04-15T06:30:58.290Z,878.00
2023-04-15T06:31:58.343Z,883.00
2023-04-15T06:32:58.313Z,893.00
2023-04-15T06:33:58.271Z,902.00
2023-04-15T06:34:58.300Z,912.00
2023-04-15T06:35:58.276Z,930.00
2023-04-15T06:36:58.275Z,949.00
2023-04-15T06:37:58.282Z,953.00
2023-04-15T06:38:58.258Z,960.00
2023-04-15T06:39:58.245Z,960.00
2023-04-15T06:40:58.233Z,960.00
2023-04-15T06:41:58.240Z,976.00
2023-04-15T06:42:58.243Z,982.00
2023-04-15T06:43:58.271Z,985.00
2023-04-15T06:44:58.231Z,999.00
2023-04-15T06:45:58.338Z,1021.00
2023-04-15T06:46:58.202Z,1028.00
2023-04-15T06:47:58.223Z,1040.00
2023-04-15T06:48:58.188Z,1056.00
2023-04-15T06:49:58.217Z,1067.00
2023-04-15T06:50:58.320Z,1094.00
2023-04-15T06:51:58.304Z,1122.00
2023-04-15T06:52:58.344Z,1129.00
2023-04-15T06:53:58.394Z,1132.00
2023-04-15T06:54:58.432Z,1145.00
2023-04-15T06:55:58.467Z,1146.00
2023-04-15T06:56:58.509Z,1150.00
2023-04-15T06:57:58.551Z,1161.00
2023-04-15T06:58:58.658Z,1166.00
2023-04-15T06:59:58.634Z,1172.00
2023-04-15T07:00:58.721Z,1175.00
2023-04-15T07:01:58.749Z,1181.00
2023-04-15T07:02:58.769Z,1187.00
2023-04-15T07:03:58.796Z,1197.00
2023-04-15T07:04:58.811Z,1215.00
2023-04-15T07:05:58.844Z,1226.00
2023-04-15T07:06:58.922Z,1189.00
2023-04-15T07:07:58.930Z,1189.00
2023-04-15T07:08:58.985Z,1173.00
2023-04-15T07:09:59.051Z,1095.00
2023-04-15T07:10:59.113Z,1029.00
2023-04-15T07:11:59.202Z,1082.00
2023-04-15T07:12:59.228Z,1073.00
2023-04-15T07:13:59.231Z,1052.00
2023-04-15T07:14:59.236Z,1026.00
2023-04-15T07:15:59.258Z,971.00
2023-04-15T07:16:59.318Z,973.00
2023-04-15T07:17:59.378Z,840.00
2023-04-15T07:18:59.609Z,735.00
2023-04-15T07:19:59.447Z,704.00
2023-04-15T07:20:59.500Z,657.00
2023-04-15T07:21:59.569Z,607.00
2023-04-15T07:22:59.676Z,558.00
2023-04-15T07:23:59.726Z,557.00
2023-04-15T07:24:59.779Z,547.00
2023-04-15T07:25:59.878Z,526.00
2023-04-15T07:27:01.258Z,546.00
2023-04-15T07:28:00.062Z,580.00
2023-04-15T07:29:00.432Z,605.00
2023-04-15T07:30:00.214Z,619.00
2023-04-15T07:31:00.314Z,610.00
2023-04-15T07:32:00.372Z,606.00
2023-04-15T07:33:00.474Z,608.00
2023-04-15T07:34:00.488Z,610.00
2023-04-15T07:35:00.541Z,611.00
2023-04-15T07:36:00.608Z,624.00
2023-04-15T07:37:00.704Z,638.00
2023-04-15T07:38:00.775Z,643.00
2023-04-15T07:39:01.182Z,641.00
2023-04-15T07:40:00.915Z,657.00
2023-04-15T07:41:00.959Z,659.00
2023-04-15T07:42:00.998Z,669.00
2023-04-15T07:43:01.013Z,690.00
2023-04-15T07:44:01.056Z,726.00
2023-04-15T07:45:01.114Z,735.00
2023-04-15T07:46:01.246Z,750.00
2023-04-15T07:47:01.259Z,765.00
2023-04-15T07:48:01.378Z,772.00
2023-04-15T07:49:01.780Z,785.00
2023-04-15T07:50:01.401Z,798.00
2023-04-15T07:51:01.441Z,831.00
2023-04-15T07:52:01.466Z,851.00
2023-04-15T07:53:01.491Z,866.00
2023-04-15T07:54:01.503Z,874.00
2023-04-15T07:55:01.537Z,880.00
2023-04-15T07:56:01.535Z,884.00
2023-04-15T07:57:01.581Z,891.00
2023-04-15T07:58:01.550Z,897.00
2023-04-15T07:59:01.839Z,922.00
2023-04-15T08:00:01.586Z,952.00
2023-04-15T08:01:01.575Z,968.00
2023-04-15T08:02:01.666Z,973.00
2023-04-15T08:03:01.949Z,977.00
2023-04-15T08:04:01.783Z,981.00
2023-04-15T08:05:01.808Z,987.00
2023-04-15T08:06:01.861Z,991.00
2023-04-15T08:07:01.879Z,995.00
2023-04-15T08:08:01.906Z,1006.00
2023-04-15T08:09:02.236Z,1019.00
2023-04-15T08:10:02.136Z,1039.00
2023-04-15T08:11:02.144Z,1052.00
2023-04-15T08:12:02.221Z,1066.00
2023-04-15T08:13:02.539Z,1081.00
2023-04-15T08:14:02.312Z,1099.00
2023-04-15T08:15:02.334Z,1106.00
2023-04-15T08:16:02.429Z,1115.00
2023-04-15T08:17:02.506Z,1133.00
2023-04-15T08:18:02.488Z,1146.00
2023-04-15T08:19:02.836Z,1154.00
2023-04-15T08:20:02.595Z,1165.00
2023-04-15T08:21:02.673Z,1177.00
2023-04-15T08:22:02.701Z,1204.00
2023-04-15T08:23:02.765Z,1203.00
2023-04-15T08:24:02.806Z,1202.00
2023-04-15T08:25:02.868Z,1213.00
2023-04-15T08:26:03.070Z,1218.00
2023-04-15T08:27:02.995Z,879.00
2023-04-15T08:28:03.002Z,839.00
2023-04-15T08:29:03.241Z,840.00
2023-04-15T08:30:04.969Z,879.00
2023-04-15T08:31:03.044Z,879.00
2023-04-15T08:32:03.045Z,919.00
2023-04-15T08:33:03.044Z,949.00
2023-04-15T08:34:03.041Z,972.00
2023-04-15T08:35:03.086Z,1013.00
2023-04-15T08:36:03.034Z,1064.00
2023-04-15T08:37:03.037Z,1091.00
2023-04-15T08:38:03.020Z,1108.00
2023-04-15T08:39:03.375Z,1127.00
2023-04-15T08:40:03.016Z,1176.00
2023-04-15T08:41:03.022Z,1173.00
2023-04-15T08:42:03.018Z,1181.00
2023-04-15T08:43:03.038Z,1189.00
2023-04-15T08:44:03.010Z,1188.00
2023-04-15T08:45:03.042Z,1178.00
2023-04-15T08:46:02.990Z,1169.00
2023-04-15T08:47:03.159Z,1172.00
2023-04-15T08:48:03.022Z,1165.00
2023-04-15T08:49:03.148Z,1158.00
2023-04-15T08:50:02.968Z,1117.00
2023-04-15T08:51:02.956Z,1081.00
2023-04-15T08:52:02.939Z,1087.00
2023-04-15T08:53:02.948Z,1101.00
2023-04-15T08:54:03.517Z,1110.00
2023-04-15T08:55:02.932Z,1125.00
2023-04-15T08:56:02.936Z,1143.00
2023-04-15T08:57:02.924Z,1149.00
2023-04-15T08:58:02.916Z,1159.00
2023-04-15T08:59:03.166Z,1169.00
2023-04-15T09:00:05.209Z,1176.00
2023-04-15T09:01:03.044Z,1192.00
2023-04-15T09:02:03.007Z,1214.00
2023-04-15T09:03:03.033Z,1221.00
2023-04-15T09:04:03.017Z,1228.00
2023-04-15T09:05:02.944Z,1233.00
2023-04-15T09:06:02.925Z,1240.00
2023-04-15T09:07:02.922Z,1248.00
2023-04-15T09:08:02.932Z,1251.00
2023-04-15T09:09:03.293Z,1253.00
2023-04-15T09:10:02.871Z,1259.00
2023-04-15T09:11:02.865Z,1273.00
2023-04-15T09:12:02.865Z,1283.00
2023-04-15T09:13:02.863Z,1287.00
2023-04-15T09:14:02.842Z,1291.00
2023-04-15T09:15:02.872Z,1299.00
2023-04-15T09:16:02.838Z,1301.00
2023-04-15T09:17:02.850Z,1304.00
2023-04-15T09:18:02.912Z,1311.00
2023-04-15T09:19:02.930Z,1328.00
2023-04-15T09:20:02.784Z,1339.00
2023-04-15T09:21:02.769Z,1352.00
2023-04-15T09:22:02.769Z,1362.00
2023-04-15T09:23:02.756Z,1365.00
2023-04-15T09:24:02.967Z,1371.00
2023-04-15T09:25:02.717Z,1380.00
2023-04-15T09:26:02.699Z,1400.00
2023-04-15T09:27:02.684Z,1405.00
2023-04-15T09:28:02.687Z,1408.00
2023-04-15T09:29:02.689Z,1411.00
2023-04-15T09:30:02.700Z,1412.00
2023-04-15T09:31:02.815Z,1425.00
2023-04-15T09:32:02.768Z,1433.00
2023-04-15T09:33:02.826Z,1443.00
2023-04-15T09:34:02.960Z,1450.00
2023-04-15T09:35:02.856Z,1458.00
2023-04-15T09:36:02.893Z,1468.00
2023-04-15T09:37:03.212Z,1476.00
2023-04-15T09:38:02.954Z,1485.00
2023-04-15T09:39:02.976Z,1494.00
2023-04-15T09:40:03.009Z,1506.00
2023-04-15T09:41:03.038Z,1105.00
2023-04-15T09:42:03.098Z,1004.00
2023-04-15T09:43:03.149Z,911.00
2023-04-15T09:44:03.421Z,864.00
2023-04-15T09:45:03.231Z,799.00
2023-04-15T09:46:03.328Z,830.00
2023-04-15T09:47:03.327Z,810.00
2023-04-15T09:48:03.355Z,773.00
2023-04-15T09:49:03.345Z,741.00
2023-04-15T09:50:03.364Z,774.00
2023-04-15T09:51:03.348Z,763.00
2023-04-15T09:52:06.064Z,751.00
2023-04-15T09:53:03.353Z,726.00
2023-04-15T09:54:03.533Z,694.00
2023-04-15T09:55:03.352Z,687.00
2023-04-15T09:56:03.358Z,792.00
2023-04-15T09:57:03.329Z,794.00
2023-04-15T09:58:03.323Z,856.00
2023-04-15T09:59:03.326Z,858.00
2023-04-15T10:00:03.331Z,908.00
2023-04-15T10:01:03.339Z,954.00
2023-04-15T10:02:03.346Z,966.00
2023-04-15T10:03:03.438Z,968.00
2023-04-15T10:04:03.682Z,968.00
2023-04-15T10:05:03.307Z,960.00
2023-04-15T10:06:03.332Z,954.00
2023-04-15T10:07:03.363Z,938.00
2023-04-15T10:08:03.316Z,943.00
2023-04-15T10:09:03.325Z,935.00
2023-04-15T10:10:03.307Z,958.00
2023-04-15T10:11:03.305Z,964.00
2023-04-15T10:12:03.286Z,963.00
2023-04-15T10:13:03.291Z,949.00
2023-04-15T10:14:03.583Z,946.00
2023-04-15T10:15:03.281Z,942.00
2023-04-15T10:16:03.313Z,926.00
2023-04-15T10:17:03.282Z,920.00
2023-04-15T10:18:03.337Z,925.00
2023-04-15T10:19:03.304Z,933.00
2023-04-15T10:20:03.286Z,942.00
2023-04-15T10:21:03.351Z,951.00
2023-04-15T10:22:03.395Z,958.00
2023-04-15T10:23:03.427Z,966.00
2023-04-15T10:24:03.727Z,973.00
2023-04-15T10:25:03.519Z,979.00
2023-04-15T10:26:03.544Z,991.00
2023-04-15T10:27:03.591Z,1007.00
2023-04-15T10:28:03.638Z,1041.00
2023-04-15T10:29:03.677Z,1053.00
2023-04-15T10:30:03.720Z,1064.00
2023-04-15T10:31:03.792Z,1074.00
2023-04-15T10:32:03.789Z,1086.00
2023-04-15T10:33:03.826Z,1118.00
2023-04-15T10:34:04.201Z,1126.00
2023-04-15T10:35:03.939Z,1138.00
2023-04-15T10:36:03.964Z,1143.00
2023-04-15T10:37:04.013Z,1148.00
2023-04-15T10:38:04.051Z,1156.00
2023-04-15T10:39:04.074Z,1163.00
2023-04-15T10:40:04.132Z,1168.00
2023-04-15T10:41:04.147Z,1179.00
2023-04-15T10:42:04.193Z,1189.00
2023-04-15T10:43:04.236Z,1217.00
2023-04-15T10:44:04.679Z,1232.00
2023-04-15T10:45:04.295Z,1234.00
2023-04-15T10:46:04.377Z,1236.00
2023-04-15T10:47:04.384Z,1244.00
2023-04-15T10:48:04.461Z,1250.00
2023-04-15T10:49:04.434Z,1257.00
2023-04-15T10:50:04.468Z,1262.00
2023-04-15T10:51:04.515Z,1267.00
2023-04-15T10:52:04.520Z,1272.00
2023-04-15T10:53:04.554Z,1273.00
2023-04-15T10:54:04.709Z,1269.00
2023-04-15T10:55:04.618Z,1253.00
2023-04-15T10:56:04.656Z,1222.00
2023-04-15T10:57:04.687Z,1170.00
2023-04-15T10:58:04.715Z,1150.00
2023-04-15T10:59:04.759Z,1137.00
2023-04-15T11:00:05.056Z,1119.00
2023-04-15T11:01:04.830Z,1123.00
2023-04-15T11:02:04.988Z,1122.00
2023-04-15T11:03:04.972Z,1117.00
2023-04-15T11:04:05.175Z,1104.00
2023-04-15T11:05:04.992Z,1074.00
2023-04-15T11:06:05.053Z,1052.00
2023-04-15T11:07:05.114Z,1045.00
2023-04-15T11:08:05.165Z,1040.00
2023-04-15T11:09:05.197Z,1038.00
2023-04-15T11:10:05.247Z,1041.00
2023-04-15T11:11:05.298Z,1042.00
2023-04-15T11:12:05.364Z,1049.00
2023-04-15T11:13:05.412Z,1049.00
2023-04-15T11:14:05.478Z,1052.00
2023-04-15T11:15:05.560Z,1056.00
2023-04-15T11:16:05.620Z,1057.00
2023-04-15T11:17:05.645Z,1054.00
2023-04-15T11:18:05.712Z,1052.00
2023-04-15T11:19:05.729Z,1049.00
2023-04-15T11:20:05.789Z,1047.00
2023-04-15T11:21:05.840Z,1046.00
2023-04-15T11:22:05.888Z,1048.00
2023-04-15T11:23:13.396Z,1050.00
2023-04-15T11:24:06.200Z,1054.00
2023-04-15T11:25:05.937Z,1052.00
2023-04-15T11:26:05.938Z,1051.00
2023-04-15T11:27:05.931Z,1051.00
2023-04-15T11:28:05.927Z,1051.00
2023-04-15T11:29:06.069Z,1051.00
2023-04-15T11:30:05.934Z,1045.00
2023-04-15T11:31:05.940Z,1042.00
2023-04-15T11:32:05.981Z,1042.00
2023-04-15T11:33:05.901Z,1041.00
2023-04-15T11:34:06.031Z,1039.00
2023-04-15T11:35:05.894Z,1042.00
2023-04-15T11:36:05.887Z,1041.00
2023-04-15T11:37:05.874Z,1041.00
2023-04-15T11:38:05.879Z,1044.00
2023-04-15T11:39:05.893Z,1043.00
2023-04-15T11:40:05.875Z,1045.00
2023-04-15T11:41:05.877Z,1045.00
2023-04-15T11:42:05.934Z,1042.00
2023-04-15T11:43:05.990Z,1043.00
2023-04-15T11:44:06.059Z,1039.00
2023-04-15T11:45:06.131Z,1035.00
2023-04-15T11:46:06.216Z,1029.00
2023-04-15T11:47:06.240Z,1026.00
2023-04-15T11:48:06.297Z,1027.00
2023-04-15T11:49:06.431Z,1026.00
2023-04-15T11:50:06.417Z,1028.00
2023-04-15T11:51:06.493Z,1028.00
2023-04-15T11:52:06.530Z,1027.00
2023-04-15T11:53:08.514Z,1025.00
2023-04-15T11:54:06.717Z,1023.00
2023-04-15T11:55:06.606Z,1020.00
2023-04-15T11:56:06.582Z,1023.00
2023-04-15T11:57:06.586Z,1020.00
2023-04-15T11:58:06.590Z,1022.00
2023-04-15T11:59:06.584Z,1018.00
2023-04-15T12:00:06.597Z,1018.00
2023-04-15T12:01:06.596Z,1018.00
2023-04-15T12:02:06.685Z,1019.00
2023-04-15T12:03:06.753Z,1018.00
2023-04-15T12:04:06.896Z,1017.00
2023-04-15T12:05:06.625Z,1020.00
2023-04-15T12:06:06.588Z,1016.00
2023-04-15T12:07:06.655Z,1017.00
2023-04-15T12:08:06.598Z,1014.00
2023-04-15T12:09:06.601Z,1011.00
2023-04-15T12:10:06.601Z,1009.00
2023-04-15T12:11:06.618Z,1006.00
2023-04-15T12:12:06.605Z,1007.00
2023-04-15T12:13:06.592Z,1005.00
2023-04-15T12:14:06.700Z,1007.00
2023-04-15T12:15:06.690Z,1009.00
2023-04-15T12:16:06.772Z,1007.00
2023-04-15T12:17:06.839Z,1007.00
2023-04-15T12:18:06.904Z,1005.00
2023-04-15T12:19:06.950Z,1001.00
2023-04-15T12:20:06.982Z,1000.00
2023-04-15T12:21:07.021Z,998.00
2023-04-15T12:22:07.053Z,997.00